Time;durP1;ratioP1;P1;durP2;ratioP2;P2;SDS_P1;SDS_P2;PMS_P1;PMS_P2;Temp;Humidity;BMP_temperature;BMP_pressure;BME280_temperature;BME280_humidity;BME280_pressure;Samples;Min_cycle;Max_cycle;Signal;HPM_P1;HPM_P2
2021/08/08 00:06:23;;;;;;;3.72;0.90;;;;;;;15.01;86.04;99770.34;20906964;28;20052;-69
2021/08/08 00:16:27;;;;;;;3.38;1.00;;;;;;;14.88;86.66;99781.41;20906568;28;20049;-69
2021/08/08 00:26:28;;;;;;;6.60;1.40;;;;;;;14.78;86.89;99780.09;20906057;28;20392;-70
2021/08/08 00:36:30;;;;;;;2.95;0.93;;;;;;;14.69;87.45;99784.88;20904855;28;20464;-69
2021/08/08 00:46:32;;;;;;;20.30;14.43;;;;;;;14.68;87.37;99788.47;20904678;28;20041;-69
2021/08/08 00:56:35;;;;;;;2.08;1.00;;;;;;;14.62;87.74;99795.69;20885213;28;20130;-69
2021/08/08 01:06:42;;;;;;;23.52;15.52;;;;;;;14.52;88.03;99807.53;20899852;28;20106;-70
2021/08/08 01:16:46;;;;;;;5.30;1.60;;;;;;;14.46;88.55;99815.66;20902350;28;20053;-69
2021/08/08 01:26:49;;;;;;;5.70;2.30;;;;;;;14.44;88.69;99817.50;20901753;28;20060;-69
2021/08/08 01:36:51;;;;;;;11.38;8.32;;;;;;;14.38;88.65;99813.34;20899627;28;20057;-69
2021/08/08 01:46:55;;;;;;;4.72;1.77;;;;;;;14.40;89.05;99830.84;20900436;28;20045;-69
2021/08/08 01:56:57;;;;;;;3.55;1.55;;;;;;;14.37;88.98;99821.28;20899931;28;20048;-69
2021/08/08 02:06:59;;;;;;;4.82;1.52;;;;;;;14.52;89.47;99819.88;20898762;28;20422;-69
2021/08/08 02:17:02;;;;;;;4.85;1.30;;;;;;;14.63;88.64;99820.25;20913899;28;20052;-69
2021/08/08 02:27:04;;;;;;;6.07;2.78;;;;;;;14.55;88.41;99820.56;20915273;28;20053;-69
2021/08/08 02:37:05;;;;;;;3.67;1.42;;;;;;;14.51;89.24;99847.94;20914258;28;20049;-69
2021/08/08 02:47:07;;;;;;;4.80;1.55;;;;;;;14.55;89.45;99846.06;20913551;28;20439;-69
2021/08/08 02:57:09;;;;;;;5.65;1.75;;;;;;;14.45;89.13;99863.97;20912929;28;20487;-69
2021/08/08 03:07:11;;;;;;;3.38;1.75;;;;;;;14.44;90.09;99882.50;20911945;28;20044;-69
2021/08/08 03:17:13;;;;;;;3.80;1.60;;;;;;;14.37;90.26;99879.22;20911756;28;20045;-69
2021/08/08 03:27:14;;;;;;;4.22;1.80;;;;;;;14.27;90.54;99893.69;20909548;28;20111;-69
2021/08/08 03:37:17;;;;;;;4.03;1.70;;;;;;;14.25;90.46;99906.91;20909446;28;20347;-69
2021/08/08 03:47:19;;;;;;;5.22;1.90;;;;;;;14.31;89.53;99904.03;20909488;28;20106;-70
2021/08/08 03:57:21;;;;;;;4.32;1.77;;;;;;;14.42;89.34;99924.72;20908630;28;20499;-70
2021/08/08 04:07:23;;;;;;;3.85;1.67;;;;;;;14.53;88.45;99927.81;20906485;28;20652;-70
2021/08/08 04:17:25;;;;;;;3.13;1.52;;;;;;;14.66;88.66;99933.44;20906959;28;20126;-70
2021/08/08 04:27:26;;;;;;;3.10;1.40;;;;;;;14.79;88.45;99949.59;20906679;28;20048;-70
2021/08/08 04:37:28;;;;;;;4.38;1.70;;;;;;;14.79;88.23;99942.56;20904802;28;20110;-70
2021/08/08 04:47:30;;;;;;;5.97;1.85;;;;;;;14.70;88.83;99956.09;20904425;28;20045;-69
2021/08/08 04:57:32;;;;;;;6.95;2.03;;;;;;;14.70;89.11;99965.78;20903146;28;20041;-69
2021/08/08 05:07:40;;;;;;;4.78;1.58;;;;;;;14.91;88.32;99978.13;20902543;28;20053;-70
2021/08/08 05:17:42;;;;;;;4.72;1.85;;;;;;;15.10;87.69;99989.63;20902937;28;20059;-70
2021/08/08 05:27:44;;;;;;;3.60;1.58;;;;;;;15.14;87.64;100001.78;20901657;28;20045;-70
2021/08/08 05:37:46;;;;;;;4.40;1.83;;;;;;;15.47;86.80;100009.19;20900335;28;20049;-69
2021/08/08 05:47:48;;;;;;;6.93;1.95;;;;;;;15.73;85.24;100009.91;20909042;28;20049;-69
2021/08/08 05:57:51;;;;;;;6.13;2.00;;;;;;;15.88;84.82;100033.00;20916703;28;20053;-70
2021/08/08 06:07:53;;;;;;;6.72;1.42;;;;;;;16.08;84.14;100042.69;20916054;28;20045;-69
2021/08/08 06:17:55;;;;;;;5.13;1.45;;;;;;;16.23;82.97;100046.44;20907707;28;20068;-69
2021/08/08 06:27:57;;;;;;;3.83;1.20;;;;;;;16.25;82.83;100047.25;20911531;28;20107;-69
2021/08/08 06:37:58;;;;;;;6.28;1.48;;;;;;;16.64;82.05;100052.50;20912757;28;20049;-70
2021/08/08 06:48:00;;;;;;;8.48;1.50;;;;;;;16.62;79.12;100057.88;20913235;28;20102;-68
2021/08/08 06:58:02;;;;;;;4.95;1.58;;;;;;;16.87;78.74;100067.34;20912573;28;20065;-70
2021/08/08 07:08:05;;;;;;;8.18;1.70;;;;;;;16.87;76.67;100078.75;20909952;28;20481;-70
2021/08/08 07:18:06;;;;;;;7.13;1.90;;;;;;;17.13;74.40;100096.03;20912471;28;20056;-70
2021/08/08 07:28:10;;;;;;;10.85;2.15;;;;;;;17.53;71.86;100103.81;20910930;28;20128;-70
2021/08/08 07:38:11;;;;;;;5.63;1.80;;;;;;;17.62;71.87;100100.72;20910242;28;20045;-70
2021/08/08 07:48:13;;;;;;;6.13;1.85;;;;;;;18.02;68.76;100112.88;20909295;28;20048;-70
2021/08/08 07:58:16;;;;;;;7.47;1.90;;;;;;;18.30;69.45;100111.44;20909636;28;20041;-70
2021/08/08 08:08:18;;;;;;;5.72;1.85;;;;;;;18.35;69.67;100117.34;20907187;28;20041;-70
2021/08/08 08:18:20;;;;;;;4.30;1.60;;;;;;;18.90;67.80;100115.28;20907376;28;20384;-70
2021/08/08 08:28:21;;;;;;;5.43;1.67;;;;;;;19.30;65.83;100109.56;20906841;28;20492;-70
2021/08/08 08:38:23;;;;;;;8.13;1.80;;;;;;;19.48;63.65;100129.78;20905609;28;20053;-70
2021/08/08 08:48:27;;;;;;;5.68;1.75;;;;;;;19.32;62.79;100131.59;20904398;28;20415;-71
2021/08/08 08:58:31;;;;;;;6.27;1.80;;;;;;;19.27;58.70;100133.66;20896653;28;20052;-70
2021/08/08 09:08:32;;;;;;;7.03;2.10;;;;;;;19.79;58.55;100138.69;20901577;28;20295;-70
2021/08/08 09:18:34;;;;;;;7.47;2.13;;;;;;;20.20;58.06;100139.75;20901551;28;20053;-70
2021/08/08 09:28:35;;;;;;;7.80;2.22;;;;;;;19.84;58.28;100141.94;20901804;28;20084;-69
2021/08/08 09:38:46;;;;;;;6.57;1.60;;;;;;;19.87;56.45;100136.41;20900011;28;20053;-70
2021/08/08 09:48:48;;;;;;;6.97;2.00;;;;;;;20.30;55.36;100141.84;20901368;28;20045;-70
2021/08/08 09:58:50;;;;;;;5.47;1.88;;;;;;;20.36;55.73;100130.84;20901954;28;20053;-70
2021/08/08 10:08:51;;;;;;;5.82;1.80;;;;;;;20.83;54.34;100138.59;20900611;28;20462;-70
2021/08/08 10:18:55;;;;;;;9.27;1.70;;;;;;;20.74;53.37;100145.38;20900905;28;20118;-68
2021/08/08 10:28:59;;;;;;;10.45;3.47;;;;;;;20.86;52.93;100150.88;20900626;28;20422;-70
2021/08/08 10:39:15;;;;;;;9.83;2.17;;;;;;;20.77;51.24;100159.41;20914710;28;20053;-68
2021/08/08 10:49:32;;;;;;;8.70;2.30;;;;;;;20.67;50.81;100145.81;20915020;28;20103;-69
2021/08/08 10:59:44;;;;;;;7.85;2.10;;;;;;;20.87;50.56;100144.59;20896397;28;20045;-68
2021/08/08 11:09:46;;;;;;;7.38;1.70;;;;;;;20.51;51.63;100148.59;20912778;28;20444;-69
2021/08/08 11:19:47;;;;;;;8.68;1.70;;;;;;;20.24;52.18;100154.56;20912568;28;20057;-69
2021/08/08 11:29:51;;;;;;;7.15;1.90;;;;;;;20.45;51.96;100160.38;20894285;28;20499;-68
2021/08/08 11:39:53;;;;;;;8.30;2.00;;;;;;;21.35;50.23;100169.09;20910133;28;20495;-69
2021/08/08 11:49:54;;;;;;;9.07;1.90;;;;;;;21.85;50.20;100162.28;20909340;28;20458;-69
2021/08/08 11:59:57;;;;;;;6.50;1.70;;;;;;;22.37;53.16;100164.13;20908785;28;20052;-69
2021/08/08 12:09:59;;;;;;;6.70;1.90;;;;;;;21.63;55.35;100174.34;20906944;28;20048;-69
2021/08/08 12:20:10;;;;;;;5.85;1.55;;;;;;;21.12;57.00;100187.34;20907790;28;20049;-69
2021/08/08 12:30:14;;;;;;;4.57;1.52;;;;;;;22.13;55.20;100159.50;20888691;28;20049;-69
2021/08/08 12:40:21;;;;;;;4.30;1.60;;;;;;;22.37;52.56;100161.44;20905629;28;20053;-68
2021/08/08 12:50:22;;;;;;;5.82;1.65;;;;;;;22.49;51.24;100147.28;20904416;28;20423;-68
2021/08/08 13:00:24;;;;;;;6.13;1.70;;;;;;;22.02;52.71;100173.50;20903518;28;20052;-69
2021/08/08 13:10:26;;;;;;;4.57;1.60;;;;;;;21.68;50.53;100188.22;20904343;28;20041;-69
2021/08/08 13:20:28;;;;;;;5.00;1.45;;;;;;;22.68;47.42;100171.72;20903025;28;20041;-69
2021/08/08 13:30:30;;;;;;;4.85;1.33;;;;;;;22.34;44.55;100169.69;20902039;28;20564;-69
2021/08/08 13:40:41;;;;;;;6.05;1.30;;;;;;;22.22;45.52;100158.88;20902213;28;20115;-69
2021/08/08 13:50:42;;;;;;;3.65;1.33;;;;;;;22.14;43.03;100153.22;20902046;28;20392;-68
2021/08/08 14:00:44;;;;;;;4.45;1.17;;;;;;;22.15;42.62;100152.25;20900369;28;20468;-68
2021/08/08 14:10:46;;;;;;;3.67;1.10;;;;;;;22.16;39.72;100158.44;20910609;28;20402;-69
2021/08/08 14:20:47;;;;;;;4.07;0.93;;;;;;;22.38;39.81;100179.19;20917034;28;20060;-68
2021/08/08 14:30:53;;;;;;;3.80;1.05;;;;;;;21.88;40.58;100186.91;20916113;28;20048;-68
2021/08/08 14:40:55;;;;;;;2.90;0.90;;;;;;;21.94;41.37;100206.97;20915637;28;20649;-68
2021/08/08 14:50:57;;;;;;;2.15;0.90;;;;;;;21.94;41.60;100223.84;20915212;28;20487;-68
2021/08/08 15:01:00;;;;;;;3.38;1.05;;;;;;;22.20;42.52;100232.81;20913081;28;20067;-68
2021/08/08 15:11:02;;;;;;;5.25;1.13;;;;;;;22.01;42.92;100253.63;20913117;28;20132;-68
2021/08/08 15:21:08;;;;;;;5.60;1.23;;;;;;;21.78;43.80;100266.63;20909313;28;20073;-68
2021/08/08 15:31:11;;;;;;;6.05;1.33;;;;;;;21.35;45.94;100276.47;20910430;28;20045;-68
2021/08/08 15:41:13;;;;;;;5.55;1.40;;;;;;;20.88;49.15;100300.66;20907599;28;20131;-68
2021/08/08 15:51:14;;;;;;;5.25;1.40;;;;;;;21.19;49.14;100310.31;20906711;28;20045;-69
2021/08/08 16:01:16;;;;;;;2.22;1.40;;;;;;;21.75;45.60;100296.16;20908867;28;20049;-68
2021/08/08 16:11:18;;;;;;;4.07;0.90;;;;;;;21.35;44.70;100300.44;20908576;28;20049;-68
2021/08/08 16:21:20;;;;;;;4.90;1.30;;;;;;;21.46;43.62;100305.09;20907248;28;20099;-68
2021/08/08 16:31:21;;;;;;;3.97;1.20;;;;;;;21.58;44.72;100306.16;20906069;28;20049;-68
2021/08/08 16:41:23;;;;;;;5.18;1.35;;;;;;;21.78;44.49;100316.41;20905712;28;20071;-68
2021/08/08 16:51:27;;;;;;;4.15;1.00;;;;;;;21.47;45.06;100330.81;20905510;28;20068;-68
2021/08/08 17:01:30;;;;;;;4.30;1.20;;;;;;;21.67;45.15;100327.75;20903651;28;20068;-68
2021/08/08 17:11:32;;;;;;;3.50;1.00;;;;;;;21.23;45.86;100339.31;20902711;28;20044;-68
2021/08/08 17:21:34;;;;;;;5.63;1.10;;;;;;;21.29;47.19;100337.22;20902986;28;20107;-68
2021/08/08 17:31:35;;;;;;;4.03;1.40;;;;;;;21.32;47.38;100347.72;20900975;28;20498;-68
2021/08/08 17:41:38;;;;;;;4.90;1.40;;;;;;;21.18;48.29;100352.06;20900902;28;20057;-68
2021/08/08 17:51:41;;;;;;;3.53;1.23;;;;;;;20.68;49.21;100353.25;20900739;28;20056;-68
2021/08/08 18:01:42;;;;;;;5.60;2.00;;;;;;;20.15;52.89;100359.81;20899663;28;20099;-68
2021/08/08 18:11:44;;;;;;;4.68;2.15;;;;;;;19.95;57.27;100384.84;20899686;28;20048;-68
2021/08/08 18:21:46;;;;;;;4.38;1.90;;;;;;;19.78;60.13;100397.31;20899143;28;20572;-68
2021/08/08 18:31:48;;;;;;;4.07;1.38;;;;;;;19.61;60.57;100399.09;20898889;28;20091;-68
2021/08/08 18:41:49;;;;;;;5.22;2.33;;;;;;;19.52;62.03;100404.00;20899446;28;20049;-68
2021/08/08 18:51:51;;;;;;;2.90;1.42;;;;;;;18.65;60.31;100449.91;20901572;28;20103;-67
2021/08/08 19:01:54;;;;;;;5.60;1.40;;;;;;;18.14;57.19;100442.59;20912155;28;20048;-67
2021/08/08 19:11:57;;;;;;;2.50;0.90;;;;;;;17.85;58.98;100449.25;20912744;28;20063;-67
2021/08/08 19:22:02;;;;;;;2.92;1.17;;;;;;;17.57;60.22;100462.81;20910905;28;20053;-67
2021/08/08 19:32:05;;;;;;;3.80;0.90;;;;;;;17.49;60.16;100481.69;20893271;28;20045;-68
2021/08/08 19:42:06;;;;;;;3.35;1.10;;;;;;;17.10;61.64;100489.50;20910231;28;20091;-68
2021/08/08 19:52:08;;;;;;;2.15;1.00;;;;;;;16.99;62.22;100497.88;20908475;28;20447;-68
2021/08/08 20:02:11;;;;;;;4.15;1.40;;;;;;;16.83;62.96;100504.72;20907071;28;20103;-68
2021/08/08 20:12:13;;;;;;;2.30;1.00;;;;;;;16.68;64.07;100509.66;20889285;28;20084;-68
2021/08/08 20:22:15;;;;;;;2.78;1.15;;;;;;;16.55;65.10;100512.84;20906780;28;20102;-67
2021/08/08 20:32:17;;;;;;;2.90;1.10;;;;;;;16.45;66.59;100528.19;20905347;28;20052;-68
2021/08/08 20:42:19;;;;;;;4.47;1.30;;;;;;;16.26;67.34;100541.22;20904647;28;20487;-67
2021/08/08 20:52:21;;;;;;;3.88;1.27;;;;;;;16.14;67.08;100553.09;20904639;28;20052;-67
2021/08/08 21:02:22;;;;;;;4.50;1.10;;;;;;;16.19;66.89;100557.34;20902377;28;20076;-68
2021/08/08 21:12:25;;;;;;;3.15;1.42;;;;;;;16.02;68.39;100576.44;20903184;28;20377;-67
2021/08/08 21:22:27;;;;;;;4.30;1.83;;;;;;;15.85;69.96;100584.94;20901623;28;20481;-70
2021/08/08 21:32:29;;;;;;;4.18;1.95;;;;;;;15.74;70.62;100577.41;20901778;28;20045;-69
2021/08/08 21:42:32;;;;;;;4.68;2.08;;;;;;;15.56;72.05;100577.97;20903124;28;20041;-69
2021/08/08 21:52:34;;;;;;;3.22;1.40;;;;;;;15.46;72.80;100590.63;20900545;28;20060;-68
2021/08/08 22:02:35;;;;;;;3.83;1.70;;;;;;;15.44;72.73;100599.50;20901021;28;20041;-69
2021/08/08 22:12:37;;;;;;;5.40;1.83;;;;;;;15.34;74.03;100580.47;20900483;28;20049;-69
2021/08/08 22:22:39;;;;;;;6.18;1.65;;;;;;;15.28;74.03;100583.28;20899404;28;20479;-69
2021/08/08 22:32:42;;;;;;;6.15;2.08;;;;;;;15.18;75.10;100595.06;20910572;28;20573;-69
2021/08/08 22:42:44;;;;;;;7.15;2.00;;;;;;;15.08;76.10;100619.06;20914854;28;20485;-69
2021/08/08 22:52:46;;;;;;;6.90;2.25;;;;;;;15.02;76.22;100606.09;20913953;28;20071;-69
2021/08/08 23:02:48;;;;;;;4.18;2.30;;;;;;;15.02;76.32;100608.72;20912795;28;20545;-69
2021/08/08 23:12:51;;;;;;;5.68;1.83;;;;;;;14.92;75.95;100604.63;20912864;28;20056;-69
2021/08/08 23:22:54;;;;;;;5.28;1.65;;;;;;;15.00;75.69;100613.19;20912806;28;20078;-69
2021/08/08 23:32:56;;;;;;;5.28;1.73;;;;;;;14.90;76.42;100617.03;20910554;28;20076;-69
2021/08/08 23:42:58;;;;;;;4.75;2.28;;;;;;;14.74;77.29;100616.59;20909376;28;20049;-69
2021/08/08 23:52:59;;;;;;;3.25;1.90;;;;;;;14.75;76.82;100614.81;20909520;28;20095;-69
